createdAt,value
2018-12-08T00:01:07.295Z,10.71
2018-12-08T00:03:38.181Z,10.57
2018-12-08T00:06:08.974Z,10.55
2018-12-08T00:08:39.805Z,10.54
2018-12-08T00:11:10.720Z,10.56
2018-12-08T00:13:41.829Z,10.49
2018-12-08T00:16:12.765Z,10.41
2018-12-08T00:18:43.251Z,10.38
2018-12-08T00:21:14.293Z,10.48
2018-12-08T00:23:45.209Z,10.60
2018-12-08T00:26:16.146Z,10.71
2018-12-08T00:28:46.910Z,10.82
2018-12-08T00:31:33.887Z,10.73
2018-12-08T00:34:04.556Z,10.66
2018-12-08T00:36:35.417Z,10.71
2018-12-08T00:39:08.175Z,10.70
2018-12-08T00:41:39.383Z,10.71
2018-12-08T00:44:10.247Z,10.77
2018-12-08T00:46:41.581Z,10.77
2018-12-08T00:49:12.541Z,10.88
2018-12-08T00:51:43.473Z,10.99
2018-12-08T00:54:14.185Z,11.11
2018-12-08T00:56:45.068Z,11.14
2018-12-08T00:59:15.980Z,11.16
2018-12-08T01:01:46.849Z,11.14
2018-12-08T01:04:17.505Z,11.28
2018-12-08T01:06:48.298Z,11.39
2018-12-08T01:09:18.988Z,11.46
2018-12-08T01:11:49.919Z,11.46
2018-12-08T01:14:20.575Z,11.43
2018-12-08T01:16:51.515Z,11.36
2018-12-08T01:19:22.183Z,11.31
2018-12-08T01:21:53.653Z,11.22
2018-12-08T01:24:24.453Z,11.16
2018-12-08T01:26:55.329Z,11.17
2018-12-08T01:29:26.126Z,11.17
2018-12-08T01:31:57.433Z,11.29
2018-12-08T01:34:28.416Z,11.35
2018-12-08T01:36:59.336Z,11.37
2018-12-08T01:39:30.403Z,11.45
2018-12-08T01:42:01.352Z,11.62
2018-12-08T01:44:32.128Z,11.74
2018-12-08T01:47:02.884Z,11.78
2018-12-08T01:49:35.250Z,11.82
2018-12-08T01:52:07.273Z,11.82
2018-12-08T01:54:38.961Z,11.88
2018-12-08T01:57:09.958Z,12.00
2018-12-08T01:59:40.926Z,12.15
2018-12-08T02:02:11.832Z,12.17
2018-12-08T02:04:42.709Z,12.12
2018-12-08T02:07:13.592Z,12.21
2018-12-08T02:09:44.338Z,12.23
2018-12-08T02:12:15.305Z,12.21
2018-12-08T02:14:46.144Z,12.24
2018-12-08T02:17:17.128Z,12.23
2018-12-08T02:19:47.903Z,12.25
2018-12-08T02:22:19.040Z,12.17
2018-12-08T02:24:49.994Z,12.20
2018-12-08T02:27:21.051Z,12.18
2018-12-08T02:29:51.858Z,12.29
2018-12-08T02:32:22.972Z,12.24
2018-12-08T02:34:53.848Z,12.17
2018-12-08T02:37:24.767Z,12.23
2018-12-08T02:39:55.650Z,12.15
2018-12-08T02:42:26.566Z,12.12
2018-12-08T02:44:57.355Z,12.08
2018-12-08T02:47:28.301Z,12.08
2018-12-08T02:49:59.119Z,12.07
2018-12-08T02:52:30.038Z,12.00
2018-12-08T02:55:00.871Z,12.04
2018-12-08T02:57:31.623Z,12.00
2018-12-08T03:00:02.463Z,12.01
2018-12-08T03:02:33.600Z,12.01
2018-12-08T03:05:04.460Z,12.14
2018-12-08T03:07:35.242Z,12.11
2018-12-08T03:10:06.449Z,12.13
2018-12-08T03:12:37.273Z,12.22
2018-12-08T03:15:08.491Z,12.33
2018-12-08T03:17:39.968Z,12.31
2018-12-08T03:20:10.683Z,12.37
2018-12-08T03:22:41.993Z,12.30
2018-12-08T03:25:12.995Z,12.06
2018-12-08T03:27:43.809Z,12.01
2018-12-08T03:30:14.908Z,11.95
2018-12-08T03:32:46.181Z,12.00
2018-12-08T03:35:17.020Z,11.91
2018-12-08T03:37:47.700Z,11.92
2018-12-08T03:40:18.612Z,11.95
2018-12-08T03:42:49.371Z,11.94
2018-12-08T03:45:20.079Z,11.90
2018-12-08T03:47:51.006Z,11.89
2018-12-08T03:50:21.895Z,11.90
2018-12-08T03:52:52.514Z,11.90
2018-12-08T03:55:23.186Z,11.83
2018-12-08T03:57:53.926Z,11.76
2018-12-08T04:00:24.890Z,11.72
2018-12-08T04:02:55.561Z,11.67
2018-12-08T04:05:26.150Z,11.56
2018-12-08T04:07:56.860Z,11.59
2018-12-08T04:10:27.676Z,11.59
2018-12-08T04:12:58.532Z,11.57
2018-12-08T04:15:29.450Z,11.63
2018-12-08T04:18:00.340Z,11.57
2018-12-08T04:20:31.191Z,11.52
2018-12-08T04:23:01.857Z,11.60
2018-12-08T04:25:32.654Z,11.57
2018-12-08T04:28:03.341Z,11.62
2018-12-08T04:30:34.007Z,11.72
2018-12-08T04:33:04.901Z,11.66
2018-12-08T04:35:35.969Z,11.63
2018-12-08T04:38:06.851Z,11.53
2018-12-08T04:40:37.760Z,11.48
2018-12-08T04:43:08.381Z,11.37
2018-12-08T04:45:39.112Z,11.49
2018-12-08T04:48:10.599Z,11.42
2018-12-08T04:50:41.230Z,11.27
2018-12-08T04:53:12.056Z,11.25
2018-12-08T04:55:42.901Z,11.16
2018-12-08T04:58:13.533Z,11.14
2018-12-08T05:00:44.311Z,11.11
2018-12-08T05:03:15.117Z,11.17
2018-12-08T05:05:45.969Z,11.47
2018-12-08T05:08:16.586Z,11.52
2018-12-08T05:10:47.428Z,11.62
2018-12-08T05:13:18.344Z,11.61
2018-12-08T05:15:49.172Z,11.61
2018-12-08T05:18:19.800Z,11.74
2018-12-08T05:20:50.527Z,11.72
2018-12-08T05:23:21.393Z,11.66
2018-12-08T05:25:52.693Z,11.80
2018-12-08T05:28:23.594Z,11.81
2018-12-08T05:30:54.476Z,11.64
2018-12-08T05:33:25.291Z,11.74
2018-12-08T05:35:56.073Z,11.81
2018-12-08T05:38:27.739Z,11.62
2018-12-08T05:40:58.866Z,11.46
2018-12-08T05:43:29.801Z,11.35
2018-12-08T05:46:00.899Z,11.18
2018-12-08T05:48:32.054Z,11.19
2018-12-08T05:51:02.809Z,11.33
2018-12-08T05:53:33.758Z,11.25
2018-12-08T05:56:04.947Z,11.33
2018-12-08T05:58:36.270Z,11.53
2018-12-08T06:01:08.036Z,11.48
2018-12-08T06:03:40.092Z,11.43
2018-12-08T06:06:12.571Z,11.42
2018-12-08T06:08:43.389Z,11.34
2018-12-08T06:11:14.223Z,11.24
2018-12-08T06:13:45.129Z,11.15
2018-12-08T06:16:16.067Z,11.11
2018-12-08T06:18:46.874Z,11.08
2018-12-08T06:21:18.253Z,11.18
2018-12-08T06:23:49.232Z,11.35
2018-12-08T06:26:23.334Z,11.39
2018-12-08T06:28:56.580Z,11.59
2018-12-08T06:31:27.438Z,11.29
2018-12-08T06:33:58.361Z,11.18
2018-12-08T06:36:29.204Z,11.10
2018-12-08T06:39:00.113Z,11.02
2018-12-08T06:41:31.097Z,11.03
2018-12-08T06:44:01.966Z,10.97
2018-12-08T06:46:32.800Z,11.02
2018-12-08T06:49:03.701Z,11.12
2018-12-08T06:51:34.565Z,11.12
2018-12-08T06:54:05.903Z,11.17
2018-12-08T06:56:37.641Z,11.21
2018-12-08T06:59:08.462Z,11.29
2018-12-08T07:01:39.268Z,11.39
2018-12-08T07:04:10.475Z,11.17
2018-12-08T07:06:41.318Z,11.06
2018-12-08T07:09:12.314Z,11.01
2018-12-08T07:11:43.195Z,10.98
2018-12-08T07:14:14.043Z,11.10
2018-12-08T07:16:45.875Z,11.07
2018-12-08T07:19:17.134Z,11.66
2018-12-08T07:21:48.165Z,12.08
2018-12-08T07:24:19.183Z,12.03
2018-12-08T07:26:50.119Z,12.47
2018-12-08T07:29:21.107Z,13.14
2018-12-08T07:31:51.981Z,14.07
2018-12-08T07:34:24.648Z,14.11
2018-12-08T07:36:55.944Z,15.30
2018-12-08T07:39:27.040Z,16.75
2018-12-08T07:41:58.139Z,17.93
2018-12-08T07:44:30.168Z,18.91
2018-12-08T07:47:01.026Z,19.34
2018-12-08T07:49:32.000Z,18.28
2018-12-08T07:52:03.715Z,17.72
2018-12-08T07:54:35.690Z,15.24
2018-12-08T07:57:06.759Z,14.15
2018-12-08T07:59:37.528Z,14.60
2018-12-08T08:02:08.686Z,15.56
2018-12-08T08:04:39.930Z,14.55
2018-12-08T08:07:10.941Z,13.61
2018-12-08T08:09:41.953Z,12.99
2018-12-08T08:12:13.035Z,12.40
2018-12-08T08:14:44.956Z,12.11
2018-12-08T08:17:15.886Z,11.86
2018-12-08T08:19:47.360Z,11.68
2018-12-08T08:22:18.457Z,11.64
2018-12-08T08:24:50.909Z,11.58
2018-12-08T08:27:22.876Z,11.51
2018-12-08T08:29:55.108Z,11.40
2018-12-08T08:32:27.028Z,11.32
2018-12-08T08:34:58.516Z,11.29
2018-12-08T08:37:30.150Z,11.25
2018-12-08T08:40:01.493Z,11.21
2018-12-08T08:42:33.145Z,11.05
2018-12-08T08:45:04.907Z,11.22
2018-12-08T08:47:37.429Z,14.36
2018-12-08T08:50:11.574Z,17.47
2018-12-08T08:52:43.331Z,19.22
2018-12-08T08:55:14.701Z,21.08
2018-12-08T08:57:46.326Z,21.77
2018-12-08T09:00:17.572Z,21.79
2018-12-08T09:02:48.741Z,22.52
2018-12-08T09:05:19.980Z,23.59
2018-12-08T09:07:51.533Z,23.85
2018-12-08T09:10:23.210Z,24.21
2018-12-08T09:12:54.367Z,24.60
2018-12-08T09:15:26.228Z,24.63
2018-12-08T09:17:58.644Z,23.82
2018-12-08T09:20:31.477Z,24.00
2018-12-08T09:23:02.343Z,24.44
2018-12-08T09:25:33.600Z,25.02
2018-12-08T09:28:04.815Z,25.55
2018-12-08T09:30:36.099Z,25.94
2018-12-08T09:33:09.009Z,26.40
2018-12-08T09:35:40.727Z,25.46
2018-12-08T09:38:12.803Z,22.89
2018-12-08T09:40:44.600Z,22.60
2018-12-08T09:43:17.123Z,21.41
2018-12-08T09:45:48.648Z,19.92
2018-12-08T09:48:19.446Z,18.44
2018-12-08T09:50:51.219Z,17.27
2018-12-08T09:53:23.396Z,16.33
2018-12-08T09:55:54.798Z,15.38
2018-12-08T09:58:26.145Z,14.55
2018-12-08T10:00:59.153Z,15.13
2018-12-08T10:03:31.275Z,17.16
2018-12-08T10:06:03.739Z,19.62
2018-12-08T10:08:35.229Z,21.03
2018-12-08T10:11:06.619Z,21.61
2018-12-08T10:13:38.709Z,22.33
2018-12-08T10:16:10.183Z,22.86
2018-12-08T10:18:41.840Z,23.79
2018-12-08T10:21:13.867Z,23.74
2018-12-08T10:23:45.608Z,24.56
2018-12-08T10:26:19.354Z,24.26
2018-12-08T10:28:51.409Z,23.60
2018-12-08T10:31:23.923Z,22.65
2018-12-08T10:33:56.082Z,22.57
2018-12-08T10:36:29.085Z,22.75
2018-12-08T10:39:01.019Z,23.37
2018-12-08T10:41:32.058Z,23.20
2018-12-08T10:44:04.724Z,23.61
2018-12-08T10:46:37.028Z,23.94
2018-12-08T10:49:08.402Z,24.61
2018-12-08T10:51:40.998Z,24.49
2018-12-08T10:54:13.014Z,23.54
2018-12-08T10:56:44.692Z,20.37
2018-12-08T10:59:16.350Z,19.43
2018-12-08T11:01:53.062Z,17.82
2018-12-08T11:04:25.058Z,17.27
2018-12-08T11:06:56.527Z,17.54
2018-12-08T11:09:28.532Z,19.34
2018-12-08T11:12:00.863Z,19.77
2018-12-08T11:14:31.613Z,19.80
2018-12-08T11:17:02.748Z,20.81
2018-12-08T11:19:34.200Z,20.24
2018-12-08T11:22:05.281Z,20.67
2018-12-08T11:24:37.173Z,21.27
2018-12-08T11:27:08.974Z,21.74
2018-12-08T11:29:40.635Z,21.29
2018-12-08T11:32:12.218Z,20.91
2018-12-08T11:34:45.944Z,21.90
2018-12-08T11:37:18.303Z,20.84
2018-12-08T11:39:50.574Z,20.93
2018-12-08T11:42:22.141Z,21.66
2018-12-08T11:44:54.251Z,21.01
2018-12-08T11:47:25.235Z,21.41
2018-12-08T11:49:56.195Z,21.51
2018-12-08T11:52:27.174Z,21.87
2018-12-08T11:54:58.267Z,22.49
2018-12-08T11:57:29.447Z,22.61
2018-12-08T12:00:00.275Z,22.31
2018-12-08T12:02:31.637Z,21.92
2018-12-08T12:05:02.623Z,21.49
2018-12-08T12:07:33.549Z,21.34
2018-12-08T12:10:04.739Z,21.25
2018-12-08T12:12:35.799Z,21.73
2018-12-08T12:15:08.328Z,21.48
2018-12-08T12:17:39.471Z,21.89
2018-12-08T12:20:11.259Z,21.76
2018-12-08T12:22:42.063Z,22.10
2018-12-08T12:25:14.354Z,21.98
2018-12-08T12:27:46.495Z,21.96
2018-12-08T12:30:19.076Z,22.28
2018-12-08T12:32:50.217Z,21.79
2018-12-08T12:35:21.612Z,21.80
2018-12-08T12:37:52.524Z,22.01
2018-12-08T12:40:23.632Z,22.10
2018-12-08T12:42:54.724Z,21.55
2018-12-08T12:45:25.602Z,21.30
2018-12-08T12:47:57.211Z,21.40
2018-12-08T12:50:29.080Z,21.53
2018-12-08T12:53:00.357Z,21.22
2018-12-08T12:55:32.130Z,21.54
2018-12-08T12:58:03.254Z,21.82
2018-12-08T13:00:34.060Z,21.68
2018-12-08T13:03:05.416Z,22.09
2018-12-08T13:05:36.840Z,21.53
2018-12-08T13:08:08.063Z,21.07
2018-12-08T13:10:39.623Z,21.15
2018-12-08T13:13:10.671Z,20.68
2018-12-08T13:15:41.823Z,20.50
2018-12-08T13:18:13.550Z,20.49
2018-12-08T13:20:44.878Z,20.88
2018-12-08T13:23:15.966Z,21.03
2018-12-08T13:25:46.764Z,21.39
2018-12-08T13:28:17.848Z,21.45
2018-12-08T13:30:49.108Z,21.95
2018-12-08T13:33:20.203Z,21.84
2018-12-08T13:35:58.604Z,21.86
2018-12-08T13:38:29.534Z,22.24
2018-12-08T13:41:01.512Z,22.15
2018-12-08T13:43:32.439Z,22.18
2018-12-08T13:46:03.541Z,22.32
2018-12-08T13:48:35.173Z,21.73
2018-12-08T13:51:06.273Z,21.33
2018-12-08T13:53:39.017Z,21.22
2018-12-08T13:56:09.884Z,21.32
2018-12-08T13:58:41.188Z,21.14
2018-12-08T14:01:12.967Z,20.78
2018-12-08T14:03:45.017Z,20.08
2018-12-08T14:06:16.231Z,20.20
2018-12-08T14:08:49.302Z,20.16
2018-12-08T14:11:20.248Z,20.16
2018-12-08T14:13:51.529Z,20.16
2018-12-08T14:16:23.095Z,20.07
2018-12-08T14:18:54.195Z,20.14
2018-12-08T14:21:25.255Z,19.90
2018-12-08T14:23:56.417Z,19.58
2018-12-08T14:26:27.449Z,19.49
2018-12-08T14:28:58.766Z,19.24
2018-12-08T14:31:30.864Z,19.25
2018-12-08T14:34:03.095Z,19.03
2018-12-08T14:36:35.041Z,18.96
2018-12-08T14:39:08.222Z,18.67
2018-12-08T14:41:39.932Z,18.41
2018-12-08T14:44:11.069Z,18.30
2018-12-08T14:46:42.103Z,18.11
2018-12-08T14:49:13.469Z,18.16
2018-12-08T14:51:44.943Z,17.98
2018-12-08T14:54:16.354Z,17.95
2018-12-08T14:56:48.007Z,17.64
2018-12-08T14:59:19.428Z,17.54
2018-12-08T15:01:50.285Z,17.57
2018-12-08T15:04:21.385Z,17.48
2018-12-08T15:06:52.959Z,17.35
2018-12-08T15:09:24.114Z,17.18
2018-12-08T15:11:55.897Z,16.91
2018-12-08T15:14:28.049Z,16.61
2018-12-08T15:16:59.663Z,16.06
2018-12-08T15:19:31.498Z,15.28
2018-12-08T15:22:02.638Z,14.55
2018-12-08T15:24:36.535Z,13.89
2018-12-08T15:27:07.848Z,13.32
2018-12-08T15:29:39.399Z,12.89
2018-12-08T15:32:11.129Z,12.55
2018-12-08T15:34:42.708Z,12.26
2018-12-08T15:37:14.383Z,11.98
2018-12-08T15:39:46.444Z,11.75
2018-12-08T15:42:18.915Z,11.60
2018-12-08T15:44:50.159Z,11.40
2018-12-08T15:47:21.841Z,11.22
2018-12-08T15:49:53.379Z,11.07
2018-12-08T15:52:24.805Z,10.92
2018-12-08T15:54:56.904Z,10.70
2018-12-08T15:57:27.888Z,10.45
2018-12-08T15:59:59.446Z,10.23
2018-12-08T16:02:30.251Z,9.96
2018-12-08T16:05:01.251Z,9.81
2018-12-08T16:07:32.238Z,9.71
2018-12-08T16:10:04.072Z,9.59
2018-12-08T16:12:35.185Z,9.42
2018-12-08T16:15:07.115Z,9.16
2018-12-08T16:17:38.524Z,9.07
2018-12-08T16:20:13.513Z,8.96
2018-12-08T16:22:44.358Z,8.93
2018-12-08T16:25:15.579Z,8.79
2018-12-08T16:27:46.486Z,8.69
2018-12-08T16:30:17.683Z,8.62
2018-12-08T16:39:49.257Z,8.17
2018-12-08T16:42:20.658Z,8.03
2018-12-08T16:44:53.050Z,7.92
2018-12-08T16:47:24.080Z,7.79
2018-12-08T16:49:55.096Z,7.63
2018-12-08T16:52:26.260Z,7.54
2018-12-08T16:54:57.402Z,7.47
2018-12-08T16:57:28.779Z,7.43
2018-12-08T17:00:01.054Z,7.32
2018-12-08T17:02:33.360Z,7.24
2018-12-08T17:05:05.274Z,7.14
2018-12-08T17:07:37.330Z,7.11
2018-12-08T17:10:09.783Z,7.04
2018-12-08T17:12:42.038Z,6.97
2018-12-08T17:15:13.523Z,6.85
2018-12-08T17:17:45.912Z,6.73
2018-12-08T17:20:18.670Z,6.65
2018-12-08T17:22:51.327Z,6.52
2018-12-08T17:25:22.766Z,6.38
2018-12-08T17:27:55.466Z,6.26
2018-12-08T17:30:29.980Z,6.13
2018-12-08T17:33:01.916Z,6.06
2018-12-08T17:35:33.215Z,6.04
2018-12-08T17:38:04.637Z,6.11
2018-12-08T17:40:37.129Z,6.11
2018-12-08T17:43:09.480Z,6.00
2018-12-08T17:45:42.927Z,5.91
2018-12-08T17:48:13.988Z,5.97
2018-12-08T17:50:48.944Z,5.94
2018-12-08T17:53:20.784Z,5.97
2018-12-08T17:55:52.755Z,5.83
2018-12-08T17:58:23.782Z,5.87
2018-12-08T18:00:55.866Z,5.73
2018-12-08T18:03:27.474Z,5.55
2018-12-08T18:05:58.937Z,5.46
2018-12-08T18:08:30.108Z,5.33
2018-12-08T18:11:01.649Z,5.32
2018-12-08T18:13:34.812Z,5.28
2018-12-08T18:16:07.061Z,5.20
2018-12-08T18:18:39.074Z,5.09
2018-12-08T18:21:10.947Z,5.05
2018-12-08T18:23:42.236Z,4.96
2018-12-08T18:26:13.531Z,4.84
2018-12-08T18:28:44.510Z,4.69
2018-12-08T18:31:16.632Z,4.51
2018-12-08T18:33:47.932Z,4.40
2018-12-08T18:36:19.099Z,4.33
2018-12-08T18:38:50.785Z,4.27
2018-12-08T18:41:22.320Z,4.21
2018-12-08T18:43:53.580Z,4.16
2018-12-08T18:46:25.283Z,4.13
2018-12-08T18:48:58.278Z,4.06
2018-12-08T18:51:30.408Z,4.02
2018-12-08T18:54:01.474Z,4.03
2018-12-08T18:56:33.160Z,4.20
2018-12-08T18:59:05.304Z,4.36
2018-12-08T19:02:13.587Z,4.45
2018-12-08T19:04:44.675Z,4.51
2018-12-08T19:07:16.418Z,4.44
2018-12-08T19:09:47.644Z,4.37
2018-12-08T19:12:18.647Z,4.10
2018-12-08T19:14:49.701Z,3.89
2018-12-08T19:17:20.538Z,3.67
2018-12-08T19:19:51.852Z,3.51
2018-12-08T19:22:23.505Z,3.41
2018-12-08T19:24:55.183Z,3.30
2018-12-08T19:27:26.643Z,3.30
2018-12-08T19:29:57.803Z,3.34
2018-12-08T19:32:30.099Z,3.38
2018-12-08T19:35:01.282Z,3.38
2018-12-08T19:37:32.893Z,3.35
2018-12-08T19:40:04.780Z,3.41
2018-12-08T19:42:36.252Z,3.50
2018-12-08T19:45:08.239Z,3.61
2018-12-08T19:47:40.975Z,3.64
2018-12-08T19:50:14.488Z,3.80
2018-12-08T19:52:47.583Z,3.82
2018-12-08T19:55:20.692Z,3.72
2018-12-08T19:57:52.387Z,3.59
2018-12-08T20:00:25.149Z,3.41
2018-12-08T20:02:58.137Z,3.22
2018-12-08T20:05:30.488Z,3.11
2018-12-08T20:08:01.996Z,3.04
2018-12-08T20:10:35.638Z,3.00
2018-12-08T20:13:07.791Z,2.97
2018-12-08T20:15:39.625Z,2.92
2018-12-08T20:18:11.931Z,2.89
2018-12-08T20:20:44.435Z,2.81
2018-12-08T20:23:15.802Z,2.73
2018-12-08T20:25:46.918Z,2.67
2018-12-08T20:28:19.793Z,2.77
2018-12-08T20:30:51.195Z,2.94
2018-12-08T20:33:23.245Z,2.97
2018-12-08T20:35:54.570Z,3.03
2018-12-08T20:38:26.150Z,3.04
2018-12-08T20:40:57.479Z,2.93
2018-12-08T20:43:28.634Z,3.00
2018-12-08T20:46:00.153Z,3.07
2018-12-08T20:48:31.615Z,3.06
2018-12-08T20:51:03.679Z,3.01
2018-12-08T20:53:35.593Z,3.12
2018-12-08T20:56:07.805Z,3.03
2018-12-08T20:58:40.322Z,2.97
2018-12-08T21:01:12.534Z,2.86
2018-12-08T21:03:44.533Z,2.67
2018-12-08T21:06:15.893Z,2.48
2018-12-08T21:08:46.988Z,2.38
2018-12-08T21:11:19.403Z,2.28
2018-12-08T21:13:50.950Z,2.23
2018-12-08T21:16:23.160Z,2.45
2018-12-08T21:18:55.962Z,2.64
2018-12-08T21:21:26.844Z,2.90
2018-12-08T21:23:58.282Z,2.86
2018-12-08T21:26:29.545Z,2.94
2018-12-08T21:29:00.859Z,2.82
2018-12-08T21:31:32.191Z,2.66
2018-12-08T21:34:03.598Z,2.51
2018-12-08T21:36:34.778Z,2.37
2018-12-08T21:39:06.927Z,2.25
2018-12-08T21:41:38.103Z,2.17
2018-12-08T21:44:08.862Z,2.14
2018-12-08T21:46:39.969Z,2.19
2018-12-08T21:49:11.361Z,2.24
2018-12-08T21:51:42.716Z,2.39
2018-12-08T21:54:13.695Z,2.69
2018-12-08T21:56:44.897Z,3.09
2018-12-08T21:59:15.906Z,3.10
2018-12-08T22:01:47.715Z,2.94
2018-12-08T22:04:18.722Z,2.61
2018-12-08T22:06:49.975Z,2.28
2018-12-08T22:09:20.986Z,2.08
2018-12-08T22:11:52.001Z,1.98
2018-12-08T22:14:23.118Z,1.94
2018-12-08T22:16:54.191Z,1.89
2018-12-08T22:19:26.295Z,1.88
2018-12-08T22:21:57.183Z,1.84
2018-12-08T22:24:29.299Z,1.71
2018-12-08T22:27:00.055Z,1.80
2018-12-08T22:29:30.913Z,1.79
2018-12-08T22:32:02.071Z,1.71
2018-12-08T22:34:33.200Z,1.64
2018-12-08T22:37:04.200Z,1.67
2018-12-08T22:39:35.096Z,1.76
2018-12-08T22:42:06.199Z,1.72
2018-12-08T22:44:37.226Z,1.58
2018-12-08T22:47:08.301Z,1.50
2018-12-08T22:49:39.269Z,1.42
2018-12-08T22:52:10.039Z,1.32
2018-12-08T22:54:41.052Z,1.31
2018-12-08T22:57:12.244Z,1.34
2018-12-08T22:59:43.111Z,1.44
2018-12-08T23:02:14.175Z,1.86
2018-12-08T23:04:45.166Z,2.09
2018-12-08T23:07:16.333Z,2.03
2018-12-08T23:09:47.397Z,1.88
2018-12-08T23:12:18.375Z,1.98
2018-12-08T23:14:49.507Z,2.18
2018-12-08T23:17:20.834Z,2.13
2018-12-08T23:19:52.790Z,1.96
2018-12-08T23:22:23.577Z,1.79
2018-12-08T23:24:55.298Z,1.83
2018-12-08T23:27:27.174Z,1.89
2018-12-08T23:29:58.591Z,1.88
2018-12-08T23:32:29.940Z,2.07
2018-12-08T23:35:01.379Z,1.88
2018-12-08T23:37:32.925Z,1.61
2018-12-08T23:40:03.897Z,1.45
2018-12-08T23:42:34.758Z,1.30
2018-12-08T23:45:05.923Z,1.26
2018-12-08T23:47:36.745Z,1.24
2018-12-08T23:50:09.604Z,1.65
2018-12-08T23:52:40.356Z,1.85
2018-12-08T23:55:12.498Z,1.91
2018-12-08T23:57:43.488Z,2.07
